Time;durP1;ratioP1;P1;durP2;ratioP2;P2;SDS_P1;SDS_P2;PMS_P1;PMS_P2;Temp;Humidity;BMP_temperature;BMP_pressure;BME280_temperature;BME280_humidity;BME280_pressure;Samples;Min_cycle;Max_cycle;Signal;HPM_P1;HPM_P2
2023/12/16 00:00:59;;;;;;;26.50;16.73;;;7.60;1.00;;;;;;5192729;27;20426;-80
2023/12/16 00:03:26;;;;;;;25.93;16.83;;;7.60;1.00;;;;;;5192714;27;20418;-80
2023/12/16 00:05:54;;;;;;;25.93;16.23;;;7.60;1.00;;;;;;5193254;27;20530;-80
2023/12/16 00:08:22;;;;;;;21.40;16.20;;;7.60;1.00;;;;;;5193318;27;20468;-81
2023/12/16 00:10:50;;;;;;;26.97;15.77;;;7.60;1.00;;;;;;5177464;27;20437;-80
2023/12/16 00:13:17;;;;;;;27.10;15.53;;;7.60;1.00;;;;;;5197808;27;20532;-81
2023/12/16 00:15:45;;;;;;;23.70;15.00;;;7.70;1.00;;;;;;5193022;27;20452;-82
2023/12/16 00:18:12;;;;;;;25.17;16.13;;;7.70;1.00;;;;;;5192248;27;21276;-82
2023/12/16 00:20:39;;;;;;;25.30;15.13;;;7.70;1.00;;;;;;5197024;27;20470;-82
2023/12/16 00:23:06;;;;;;;30.00;15.87;;;7.70;1.00;;;;;;5193341;27;20458;-81
2023/12/16 00:25:35;;;;;;;25.07;14.03;;;7.70;1.00;;;;;;5191171;27;20463;-81
2023/12/16 00:28:02;;;;;;;25.43;15.80;;;7.70;1.00;;;;;;5195221;27;20462;-81
2023/12/16 00:30:29;;;;;;;27.93;15.50;;;7.70;1.00;;;;;;5195285;27;20445;-82
2023/12/16 00:32:59;;;;;;;32.80;15.83;;;7.70;1.00;;;;;;5190643;27;21337;-80
2023/12/16 00:35:26;;;;;;;23.83;14.77;;;7.70;1.00;;;;;;5197327;27;20454;-81
2023/12/16 00:37:52;;;;;;;32.03;17.83;;;7.80;1.00;;;;;;5195893;27;20459;-81
2023/12/16 00:40:20;;;;;;;27.27;15.23;;;7.80;1.00;;;;;;5189710;27;21232;-81
2023/12/16 00:42:48;;;;;;;27.57;15.90;;;7.80;1.00;;;;;;5195566;27;21201;-81
2023/12/16 00:45:15;;;;;;;32.23;16.03;;;7.70;1.00;;;;;;5193869;27;20504;-81
2023/12/16 00:47:43;;;;;;;30.10;17.77;;;7.70;1.00;;;;;;5194923;27;20465;-81
2023/12/16 00:50:11;;;;;;;31.43;16.20;;;7.70;1.00;;;;;;5195583;27;20881;-82
2023/12/16 00:52:38;;;;;;;27.50;17.20;;;7.70;1.00;;;;;;5195390;27;20443;-82
2023/12/16 00:55:06;;;;;;;24.57;14.93;;;7.80;1.00;;;;;;5196549;27;20436;-82
2023/12/16 00:57:42;;;;;;;;;;;;;;;;;;;;;
2023/12/16 01:00:13;;;;;;;30.93;18.10;;;7.80;1.00;;;;;;5193959;27;40756;-86
2023/12/16 01:02:40;;;;;;;27.00;16.13;;;7.70;1.00;;;;;;5194071;27;20476;-84
2023/12/16 01:05:07;;;;;;;27.03;16.63;;;7.70;1.00;;;;;;5192416;27;20476;-83
2023/12/16 01:07:36;;;;;;;32.63;17.87;;;7.70;1.00;;;;;;5197203;27;20462;-83
2023/12/16 01:10:04;;;;;;;26.40;17.27;;;7.70;1.00;;;;;;5192649;27;20529;-83
2023/12/16 01:12:31;;;;;;;25.63;17.97;;;7.70;1.00;;;;;;5192477;27;20524;-82
2023/12/16 01:14:58;;;;;;;26.50;15.87;;;7.70;1.00;;;;;;5195835;27;20514;-83
2023/12/16 01:17:26;;;;;;;25.80;16.90;;;7.70;1.00;;;;;;5196183;27;21216;-83
2023/12/16 01:19:54;;;;;;;27.50;16.67;;;7.60;1.00;;;;;;5192910;27;20418;-84
2023/12/16 01:22:20;;;;;;;28.63;17.20;;;7.60;1.00;;;;;;5195443;27;20573;-85
2023/12/16 01:24:48;;;;;;;28.07;16.70;;;7.60;1.00;;;;;;5191370;27;21186;-81
2023/12/16 01:27:14;;;;;;;26.43;17.20;;;7.60;1.00;;;;;;5191183;27;20454;-82
2023/12/16 01:29:42;;;;;;;27.57;15.63;;;7.60;1.00;;;;;;5193416;27;20482;-83
2023/12/16 01:32:10;;;;;;;25.03;16.00;;;7.60;1.00;;;;;;5195014;27;20467;-83
2023/12/16 01:34:38;;;;;;;27.93;16.67;;;7.60;1.00;;;;;;5189249;27;20463;-84
2023/12/16 01:37:05;;;;;;;31.40;17.30;;;7.60;1.00;;;;;;5194728;27;20493;-83
2023/12/16 01:39:32;;;;;;;23.37;16.97;;;7.70;1.00;;;;;;5192370;27;20454;-84
2023/12/16 01:41:59;;;;;;;25.10;14.87;;;7.70;1.00;;;;;;5192900;27;20465;-86
2023/12/16 01:44:26;;;;;;;25.63;15.40;;;7.80;1.00;;;;;;5174625;27;20565;-82
2023/12/16 01:46:53;;;;;;;26.20;14.60;;;7.70;1.00;;;;;;5191721;27;20495;-81
2023/12/16 01:49:22;;;;;;;33.90;16.93;;;7.70;1.00;;;;;;5193759;27;20494;-81
2023/12/16 01:51:53;;;;;;;33.80;19.23;;;7.80;1.00;;;;;;5193859;27;20443;-82
2023/12/16 01:54:20;;;;;;;26.80;15.37;;;7.80;1.00;;;;;;5191465;27;20465;-81
2023/12/16 01:56:56;;;;;;;31.00;16.30;;;7.70;1.00;;;;;;5192872;27;20454;-81
2023/12/16 01:59:23;;;;;;;27.57;16.27;;;7.70;1.00;;;;;;5191236;27;21325;-81
2023/12/16 02:01:51;;;;;;;27.77;15.37;;;7.70;1.00;;;;;;5189887;27;21440;-81
2023/12/16 02:04:19;;;;;;;24.53;15.27;;;7.70;1.00;;;;;;5195190;27;20514;-82
2023/12/16 02:06:46;;;;;;;25.40;15.63;;;7.70;1.00;;;;;;5193879;27;20501;-82
2023/12/16 02:09:17;;;;;;;20.30;15.35;;;7.70;1.00;;;;;;5192243;27;20968;-80
2023/12/16 02:11:44;;;;;;;26.37;15.43;;;7.70;1.00;;;;;;5188118;27;20243;-82
2023/12/16 02:14:11;;;;;;;22.73;15.10;;;7.70;1.00;;;;;;5196162;27;20511;-82
2023/12/16 02:16:39;;;;;;;20.70;13.80;;;7.70;1.00;;;;;;5192458;27;20465;-81
2023/12/16 02:19:09;;;;;;;28.57;14.50;;;7.70;1.00;;;;;;5195292;27;20504;-81
2023/12/16 02:21:37;;;;;;;22.97;14.90;;;7.70;1.00;;;;;;5192212;27;20554;-82
2023/12/16 02:24:08;;;;;;;19.33;14.13;;;7.70;1.00;;;;;;5195565;27;20501;-82
2023/12/16 02:26:37;;;;;;;23.60;14.00;;;7.70;1.00;;;;;;5194229;27;20493;-82
2023/12/16 02:29:04;;;;;;;24.37;14.03;;;7.70;1.00;;;;;;5195357;27;21165;-82
2023/12/16 02:31:31;;;;;;;27.67;14.57;;;7.80;1.00;;;;;;5194420;27;20438;-81
2023/12/16 02:33:58;;;;;;;19.03;12.83;;;7.80;1.00;;;;;;5194347;27;21227;-82
2023/12/16 02:36:26;;;;;;;19.43;13.30;;;7.80;1.00;;;;;;5197302;27;20502;-82
2023/12/16 02:38:53;;;;;;;24.77;15.83;;;7.80;1.00;;;;;;5194446;27;20533;-83
2023/12/16 02:41:23;;;;;;;27.43;15.10;;;7.80;1.00;;;;;;5197275;27;20460;-82
2023/12/16 02:43:50;;;;;;;19.43;13.60;;;7.80;1.00;;;;;;5195865;27;20425;-82
2023/12/16 02:46:17;;;;;;;22.17;14.30;;;7.80;1.00;;;;;;5198924;27;20520;-82
2023/12/16 02:48:44;;;;;;;24.48;13.48;;;7.80;1.00;;;;;;5196225;27;20466;-83
2023/12/16 02:51:18;;;;;;;26.83;15.10;;;7.80;1.00;;;;;;5194497;27;20236;-82
2023/12/16 02:53:45;;;;;;;24.53;13.60;;;7.80;1.00;;;;;;5193140;27;20464;-83
2023/12/16 02:56:12;;;;;;;21.57;14.70;;;7.80;1.00;;;;;;5197998;27;21225;-81
2023/12/16 02:58:43;;;;;;;21.33;14.73;;;7.80;1.00;;;;;;5197351;27;20461;-82
2023/12/16 03:01:10;;;;;;;25.93;15.03;;;7.80;1.00;;;;;;5190408;27;20457;-84
2023/12/16 03:03:38;;;;;;;21.70;14.80;;;7.80;1.00;;;;;;5193926;27;20880;-82
2023/12/16 03:06:06;;;;;;;25.40;14.70;;;7.80;1.00;;;;;;5194845;27;20451;-81
2023/12/16 03:08:33;;;;;;;20.30;14.63;;;7.70;1.00;;;;;;5195373;27;20442;-82
2023/12/16 03:11:02;;;;;;;26.77;14.20;;;7.80;1.00;;;;;;5192519;27;21269;-80
2023/12/16 03:13:29;;;;;;;26.63;15.70;;;7.70;1.00;;;;;;5197159;27;20453;-79
2023/12/16 03:15:58;;;;;;;22.93;14.80;;;7.70;1.00;;;;;;5197983;27;20450;-82
2023/12/16 03:18:26;;;;;;;26.00;16.17;;;7.70;1.00;;;;;;5195145;27;21214;-83
2023/12/16 03:20:53;;;;;;;25.03;15.80;;;7.70;1.00;;;;;;5191003;27;20448;-82
2023/12/16 03:23:20;;;;;;;27.27;15.20;;;7.70;1.00;;;;;;5194891;27;20413;-83
2023/12/16 03:25:47;;;;;;;20.90;14.10;;;7.70;1.00;;;;;;5192706;27;20484;-81
2023/12/16 03:28:15;;;;;;;28.25;14.55;;;7.70;1.00;;;;;;5189402;27;20991;-81
2023/12/16 03:30:43;;;;;;;23.95;14.98;;;7.70;1.00;;;;;;5194291;27;20664;-82
2023/12/16 03:33:12;;;;;;;23.33;14.37;;;7.70;1.00;;;;;;5197572;27;20238;-82
2023/12/16 03:35:39;;;;;;;19.53;14.87;;;7.70;1.00;;;;;;5194894;27;21870;-80
2023/12/16 03:38:06;;;;;;;26.87;16.23;;;7.80;1.00;;;;;;5196192;27;20442;-81
2023/12/16 03:40:33;;;;;;;27.40;16.20;;;7.80;1.00;;;;;;5196656;27;20444;-81
2023/12/16 03:43:01;;;;;;;30.40;16.60;;;7.80;1.00;;;;;;5198494;27;20464;-81
2023/12/16 03:45:28;;;;;;;28.20;16.67;;;7.80;1.00;;;;;;5195550;27;20494;-81
2023/12/16 03:47:55;;;;;;;24.37;16.27;;;7.80;1.00;;;;;;5183889;27;20467;-81
2023/12/16 03:50:24;;;;;;;32.03;16.85;;;7.80;1.00;;;;;;5186416;27;20895;-81
2023/12/16 03:52:51;;;;;;;29.83;15.87;;;7.80;1.00;;;;;;5193872;27;20256;-81
2023/12/16 03:55:18;;;;;;;22.53;16.60;;;7.80;1.00;;;;;;5193334;27;20474;-81
2023/12/16 03:57:47;;;;;;;29.08;17.23;;;7.80;1.00;;;;;;5194858;27;20451;-83
2023/12/16 04:00:15;;;;;;;21.87;16.20;;;7.90;1.00;;;;;;5190609;27;20245;-81
2023/12/16 04:02:42;;;;;;;28.83;18.00;;;7.90;1.00;;;;;;5189488;27;20470;-82
2023/12/16 04:05:09;;;;;;;24.53;16.60;;;7.90;1.00;;;;;;5194363;27;20470;-81
2023/12/16 04:07:37;;;;;;;29.80;18.30;;;7.90;1.00;;;;;;5194363;27;20442;-82
2023/12/16 04:10:07;;;;;;;28.23;18.57;;;7.90;1.00;;;;;;5192842;27;20446;-79
2023/12/16 04:12:34;;;;;;;31.33;17.63;;;7.90;1.00;;;;;;5193950;27;20466;-80
2023/12/16 04:15:01;;;;;;;32.77;20.57;;;7.90;1.00;;;;;;5193063;27;20502;-81
2023/12/16 04:17:28;;;;;;;28.73;17.57;;;7.90;1.00;;;;;;5196357;27;20435;-81
2023/12/16 04:19:55;;;;;;;32.30;19.50;;;8.00;1.00;;;;;;5195995;27;21041;-82
2023/12/16 04:22:22;;;;;;;34.10;18.90;;;8.00;1.00;;;;;;5194351;27;20442;-80
2023/12/16 04:24:57;;;;;;;30.70;18.57;;;8.00;1.00;;;;;;5193694;27;20545;-80
2023/12/16 04:27:24;;;;;;;27.80;18.63;;;8.10;1.00;;;;;;5193661;27;20449;-80
2023/12/16 04:29:52;;;;;;;26.33;19.60;;;8.10;1.00;;;;;;5191710;27;21293;-80
2023/12/16 04:32:19;;;;;;;31.93;19.43;;;8.10;1.00;;;;;;5192148;27;21268;-80
2023/12/16 04:34:48;;;;;;;26.10;19.03;;;8.10;1.00;;;;;;5190820;27;20470;-81
2023/12/16 04:37:15;;;;;;;26.20;18.23;;;8.10;1.00;;;;;;5193835;27;20508;-81
2023/12/16 04:39:42;;;;;;;27.37;18.87;;;8.10;1.00;;;;;;5193880;27;20493;-80
2023/12/16 04:42:11;;;;;;;27.20;18.43;;;8.10;1.00;;;;;;5192026;27;20467;-81
2023/12/16 04:44:40;;;;;;;26.07;17.90;;;8.00;1.00;;;;;;5193958;27;20447;-81
2023/12/16 04:47:08;;;;;;;31.67;18.27;;;8.00;1.00;;;;;;5188577;27;20447;-82
2023/12/16 04:49:35;;;;;;;30.58;18.67;;;7.90;1.00;;;;;;5193063;27;20483;-81
2023/12/16 04:52:04;;;;;;;29.83;17.20;;;7.90;1.00;;;;;;5188879;27;20243;-81
2023/12/16 04:54:31;;;;;;;31.07;19.00;;;7.90;1.00;;;;;;5186662;27;20459;-80
2023/12/16 04:57:02;;;;;;;28.35;17.70;;;7.90;1.00;;;;;;5189493;27;20435;-83
2023/12/16 04:59:31;;;;;;;31.67;19.43;;;7.90;1.00;;;;;;5171265;27;20360;-80
2023/12/16 05:01:58;;;;;;;29.10;18.37;;;7.90;1.00;;;;;;5191103;27;20507;-80
2023/12/16 05:04:25;;;;;;;31.10;19.07;;;7.90;1.00;;;;;;5182065;27;20473;-82
2023/12/16 05:06:52;;;;;;;26.70;19.30;;;7.80;1.00;;;;;;5184872;27;20450;-81
2023/12/16 05:09:19;;;;;;;26.63;17.80;;;7.80;1.00;;;;;;5190553;27;20490;-80
2023/12/16 05:11:46;;;;;;;32.53;19.55;;;7.80;1.00;;;;;;5188186;27;20474;-81
2023/12/16 05:14:14;;;;;;;28.83;18.57;;;7.80;1.00;;;;;;5191296;27;20236;-81
2023/12/16 05:16:42;;;;;;;34.10;18.90;;;7.80;1.00;;;;;;5189709;27;20439;-85
2023/12/16 05:19:12;;;;;;;25.97;18.00;;;7.80;1.00;;;;;;5190659;27;20466;-81
2023/12/16 05:21:39;;;;;;;26.97;18.90;;;7.80;1.00;;;;;;5190341;27;20557;-81
2023/12/16 05:24:06;;;;;;;27.57;18.03;;;7.70;1.00;;;;;;5188349;27;20840;-80
2023/12/16 05:26:33;;;;;;;27.30;17.73;;;7.70;1.00;;;;;;5190827;27;21212;-83
2023/12/16 05:29:03;;;;;;;29.07;18.10;;;7.80;1.00;;;;;;5190621;27;20461;-81
2023/12/16 05:31:30;;;;;;;24.53;16.80;;;7.70;1.00;;;;;;5191173;27;20530;-80
2023/12/16 05:33:59;;;;;;;32.67;17.63;;;7.70;1.00;;;;;;5190271;27;20469;-82
2023/12/16 05:36:26;;;;;;;26.37;17.73;;;7.70;1.00;;;;;;5190504;27;20502;-81
2023/12/16 05:38:55;;;;;;;22.33;16.83;;;7.70;1.00;;;;;;5162726;27;20530;-83
2023/12/16 05:41:22;;;;;;;32.77;17.60;;;7.60;1.00;;;;;;5191697;27;20467;-82
2023/12/16 05:43:49;;;;;;;32.13;18.47;;;7.70;1.00;;;;;;5172193;27;20460;-80
2023/12/16 05:46:17;;;;;;;27.30;18.83;;;7.60;1.00;;;;;;5188812;27;20445;-81
2023/12/16 05:48:44;;;;;;;25.80;16.20;;;7.50;1.00;;;;;;5190841;27;20531;-82
2023/12/16 05:51:13;;;;;;;28.77;15.70;;;7.40;1.00;;;;;;5190800;27;20492;-81
2023/12/16 05:53:39;;;;;;;26.40;15.60;;;7.40;1.00;;;;;;5186239;27;20235;-82
2023/12/16 05:56:10;;;;;;;30.87;16.00;;;7.40;1.00;;;;;;5193065;27;20461;-82
2023/12/16 05:58:37;;;;;;;24.93;15.53;;;7.40;1.00;;;;;;5192156;27;20495;-82
2023/12/16 06:01:09;;;;;;;24.47;16.03;;;7.40;1.00;;;;;;5198454;27;20462;-83
2023/12/16 06:03:36;;;;;;;19.63;14.20;;;7.30;1.00;;;;;;5193503;27;20463;-81
2023/12/16 06:06:04;;;;;;;27.08;15.75;;;7.40;1.00;;;;;;5194238;27;20470;-82
2023/12/16 06:08:34;;;;;;;26.85;17.17;;;7.40;1.00;;;;;;5194732;27;20235;-82
2023/12/16 06:11:01;;;;;;;22.47;15.80;;;7.40;1.00;;;;;;5198449;27;20229;-83
2023/12/16 06:13:29;;;;;;;23.90;14.70;;;7.50;1.00;;;;;;5194190;27;20450;-81
2023/12/16 06:15:56;;;;;;;21.07;14.53;;;7.50;1.00;;;;;;5195152;27;20446;-81
2023/12/16 06:18:23;;;;;;;24.20;14.30;;;7.50;1.00;;;;;;5192485;27;20485;-81
2023/12/16 06:20:50;;;;;;;22.03;14.80;;;7.50;1.00;;;;;;5177580;27;20441;-82
2023/12/16 06:23:17;;;;;;;23.60;14.83;;;7.50;1.00;;;;;;5193807;27;20457;-82
2023/12/16 06:25:46;;;;;;;24.33;14.33;;;7.60;1.00;;;;;;5196334;27;20540;-79
2023/12/16 06:28:13;;;;;;;22.00;15.30;;;7.60;1.00;;;;;;5190284;27;20546;-79
2023/12/16 06:30:41;;;;;;;23.27;14.20;;;7.60;1.00;;;;;;5196140;27;20459;-81
2023/12/16 06:33:09;;;;;;;19.17;13.33;;;7.60;1.00;;;;;;5197101;27;20470;-80
2023/12/16 06:35:36;;;;;;;22.40;14.47;;;7.60;1.00;;;;;;5193642;27;20455;-80
2023/12/16 06:38:03;;;;;;;21.93;13.97;;;7.70;1.00;;;;;;5196423;27;20495;-81
2023/12/16 06:40:31;;;;;;;20.93;13.30;;;7.60;1.00;;;;;;5196441;27;20466;-79
2023/12/16 06:43:00;;;;;;;18.57;13.83;;;7.60;1.00;;;;;;5193367;27;21229;-78
2023/12/16 06:45:27;;;;;;;26.07;13.70;;;7.60;1.00;;;;;;5194845;27;20457;-79
2023/12/16 06:47:55;;;;;;;19.80;13.17;;;7.60;1.00;;;;;;5192817;27;20495;-79
2023/12/16 06:50:23;;;;;;;22.70;13.03;;;7.60;1.00;;;;;;5194944;27;20542;-79
2023/12/16 06:52:50;;;;;;;16.77;11.67;;;7.70;1.00;;;;;;5191578;27;20485;-78
2023/12/16 06:55:18;;;;;;;21.10;12.90;;;7.70;1.00;;;;;;5178628;27;20493;-79
2023/12/16 06:57:45;;;;;;;18.37;12.00;;;7.80;1.00;;;;;;5192080;27;20481;-79
2023/12/16 07:00:14;;;;;;;25.07;12.37;;;7.80;1.00;;;;;;5193435;27;20450;-78
2023/12/16 07:02:43;;;;;;;17.10;11.87;;;7.70;1.00;;;;;;5189059;27;20497;-79
2023/12/16 07:05:12;;;;;;;18.70;11.97;;;7.70;1.00;;;;;;5195198;27;20507;-79
2023/12/16 07:07:41;;;;;;;19.70;11.03;;;7.70;1.00;;;;;;5182269;27;20541;-78
2023/12/16 07:10:09;;;;;;;15.27;10.33;;;7.70;1.00;;;;;;5188829;27;20449;-79
2023/12/16 07:12:36;;;;;;;20.87;11.10;;;7.70;1.00;;;;;;5190194;27;20480;-78
2023/12/16 07:15:03;;;;;;;20.27;12.43;;;7.80;1.00;;;;;;5193694;27;20462;-77
2023/12/16 07:17:31;;;;;;;19.42;10.07;;;7.70;1.00;;;;;;5190018;27;20502;-78
2023/12/16 07:20:01;;;;;;;22.33;11.53;;;7.80;1.00;;;;;;5194408;27;20260;-78
2023/12/16 07:22:29;;;;;;;20.30;10.23;;;7.80;1.00;;;;;;5194842;27;21269;-77
2023/12/16 07:24:58;;;;;;;17.70;11.43;;;7.80;1.00;;;;;;5191679;27;20975;-78
2023/12/16 07:27:26;;;;;;;16.57;11.00;;;7.90;1.00;;;;;;5196225;27;20236;-79
2023/12/16 07:29:53;;;;;;;17.53;10.30;;;7.90;1.00;;;;;;5191637;27;20438;-78
2023/12/16 07:32:20;;;;;;;20.87;10.90;;;7.90;1.00;;;;;;5196739;27;20470;-78
2023/12/16 07:34:50;;;;;;;18.52;10.25;;;7.80;1.00;;;;;;5192764;27;20497;-79
2023/12/16 07:37:18;;;;;;;16.53;10.17;;;7.80;1.00;;;;;;5195750;27;20307;-77
2023/12/16 07:39:45;;;;;;;23.07;12.23;;;7.90;1.00;;;;;;5194677;27;20442;-78
2023/12/16 07:42:13;;;;;;;14.63;9.57;;;7.90;1.00;;;;;;5192637;27;20465;-78
2023/12/16 07:44:40;;;;;;;19.53;10.23;;;7.90;1.00;;;;;;5189620;27;20534;-77
2023/12/16 07:47:07;;;;;;;21.43;9.70;;;8.00;1.00;;;;;;5196724;27;20456;-78
2023/12/16 07:49:34;;;;;;;13.53;10.10;;;8.00;1.00;;;;;;5193468;27;20442;-80
2023/12/16 07:52:03;;;;;;;16.00;9.20;;;8.00;1.00;;;;;;5194769;27;20459;-79
2023/12/16 07:54:32;;;;;;;17.23;10.30;;;8.00;1.00;;;;;;5192172;27;20507;-79
2023/12/16 07:57:00;;;;;;;21.10;11.43;;;8.00;1.00;;;;;;5195086;27;20537;-78
2023/12/16 07:59:30;;;;;;;14.03;9.67;;;8.10;1.00;;;;;;5174658;27;20463;-78
2023/12/16 08:01:59;;;;;;;17.43;10.33;;;8.10;1.00;;;;;;5194981;27;20833;-78
2023/12/16 08:04:27;;;;;;;17.87;9.90;;;8.20;1.00;;;;;;5190949;27;20524;-78
2023/12/16 08:06:54;;;;;;;16.03;9.47;;;8.20;1.00;;;;;;5195013;27;20459;-78
2023/12/16 08:09:25;;;;;;;14.40;9.27;;;8.20;1.00;;;;;;5193726;27;20463;-78
2023/12/16 08:11:57;;;;;;;17.30;9.53;;;8.20;1.00;;;;;;5189409;27;20442;-78
2023/12/16 08:14:24;;;;;;;15.47;9.50;;;8.20;1.00;;;;;;5192142;27;20449;-79
2023/12/16 08:16:52;;;;;;;13.60;9.27;;;8.20;1.00;;;;;;5193804;27;22525;-78
2023/12/16 08:19:20;;;;;;;14.67;9.70;;;8.20;1.00;;;;;;5195130;27;20523;-79
2023/12/16 08:21:50;;;;;;;16.50;9.07;;;8.20;1.00;;;;;;5174663;27;20454;-79
2023/12/16 08:24:17;;;;;;;13.40;8.33;;;8.20;1.00;;;;;;5194629;27;20526;-77
2023/12/16 08:26:49;;;;;;;18.13;9.27;;;8.20;1.00;;;;;;5193761;27;20454;-77
2023/12/16 08:29:17;;;;;;;12.83;8.30;;;8.20;1.00;;;;;;5186654;27;20477;-77
2023/12/16 08:31:48;;;;;;;15.80;8.70;;;8.30;1.00;;;;;;5191423;27;20504;-81
2023/12/16 08:34:16;;;;;;;10.93;8.50;;;8.20;1.00;;;;;;5193300;27;20890;-81
2023/12/16 08:36:43;;;;;;;16.03;8.10;;;8.30;1.00;;;;;;5196290;27;20458;-80
2023/12/16 08:39:10;;;;;;;16.20;9.30;;;8.30;1.00;;;;;;5192141;27;20443;-81
2023/12/16 08:41:37;;;;;;;11.33;8.93;;;8.30;1.00;;;;;;5183710;27;20920;-80
2023/12/16 08:44:07;;;;;;;11.60;7.13;;;8.30;1.00;;;;;;5196530;27;20420;-80
2023/12/16 08:46:40;;;;;;;20.60;9.40;;;8.30;1.00;;;;;;5195594;27;20479;-81
2023/12/16 08:49:07;;;;;;;12.63;7.90;;;8.30;1.00;;;;;;5193821;27;20434;-81
2023/12/16 08:51:34;;;;;;;15.37;7.70;;;8.40;1.00;;;;;;5193211;27;20475;-81
2023/12/16 08:54:01;;;;;;;14.30;8.40;;;8.40;1.00;;;;;;5194047;27;20527;-82
2023/12/16 08:56:29;;;;;;;15.13;7.00;;;8.40;1.00;;;;;;5197805;27;21398;-83
2023/12/16 08:58:57;;;;;;;12.17;7.20;;;8.40;1.00;;;;;;5192263;27;20454;-82
2023/12/16 09:01:25;;;;;;;9.70;6.73;;;8.40;1.00;;;;;;5193930;27;20528;-80
2023/12/16 09:03:52;;;;;;;17.47;7.40;;;8.40;1.00;;;;;;5193383;27;20475;-81
2023/12/16 09:06:21;;;;;;;11.03;6.73;;;8.50;1.00;;;;;;5193910;27;20579;-79
2023/12/16 09:08:48;;;;;;;10.40;6.33;;;8.50;1.00;;;;;;5189746;27;21078;-79
2023/12/16 09:11:17;;;;;;;8.60;5.77;;;8.60;1.00;;;;;;5194767;27;20497;-81
2023/12/16 09:13:44;;;;;;;11.40;7.17;;;8.60;1.00;;;;;;5190136;27;20949;-80
2023/12/16 09:16:11;;;;;;;17.30;7.40;;;8.60;1.00;;;;;;5197025;27;21246;-80
2023/12/16 09:18:39;;;;;;;13.30;6.23;;;8.70;1.00;;;;;;5190162;27;20519;-80
2023/12/16 09:21:07;;;;;;;13.53;6.20;;;8.70;1.00;;;;;;5193438;27;21240;-80
2023/12/16 09:23:36;;;;;;;10.93;6.77;;;8.80;1.00;;;;;;5193384;27;20431;-81
2023/12/16 09:26:05;;;;;;;9.63;6.53;;;8.80;1.00;;;;;;5189029;27;20543;-80
2023/12/16 09:28:32;;;;;;;10.57;6.67;;;8.90;1.00;;;;;;5192296;27;20457;-80
2023/12/16 09:31:01;;;;;;;8.83;5.97;;;8.90;1.00;;;;;;5174151;27;20461;-80
2023/12/16 09:33:31;;;;;;;15.53;6.63;;;9.00;1.00;;;;;;5199126;27;20423;-80
2023/12/16 09:36:02;;;;;;;10.33;5.80;;;9.10;1.00;;;;;;5192643;27;20534;-81
2023/12/16 09:38:29;;;;;;;8.70;6.07;;;9.10;1.00;;;;;;5190799;27;20444;-81
2023/12/16 09:40:57;;;;;;;12.53;5.93;;;9.20;1.00;;;;;;5196376;27;20461;-81
2023/12/16 09:43:24;;;;;;;10.70;5.97;;;9.20;1.00;;;;;;5192725;27;20449;-80
2023/12/16 09:45:51;;;;;;;11.67;5.70;;;9.40;1.00;;;;;;5190764;27;20446;-81
2023/12/16 09:48:20;;;;;;;14.57;6.30;;;9.50;1.00;;;;;;5189943;27;20482;-80
2023/12/16 09:50:48;;;;;;;7.80;4.90;;;9.70;1.00;;;;;;5192457;27;20459;-81
2023/12/16 09:53:17;;;;;;;11.73;5.37;;;9.90;1.00;;;;;;5192520;27;20445;-80
2023/12/16 09:55:46;;;;;;;10.70;5.23;;;10.10;1.00;;;;;;5191289;27;21243;-80
2023/12/16 09:58:16;;;;;;;12.80;10.63;;;10.20;1.00;;;;;;5196251;27;20446;-81
2023/12/16 10:00:47;;;;;;;12.93;6.33;;;10.40;1.00;;;;;;5192746;27;20557;-82
2023/12/16 10:03:15;;;;;;;9.67;6.10;;;10.50;1.00;;;;;;5194976;27;20454;-80
2023/12/16 10:05:44;;;;;;;9.13;4.87;;;10.40;1.00;;;;;;5188308;27;20462;-80
2023/12/16 10:08:12;;;;;;;11.73;4.97;;;10.30;1.00;;;;;;5187866;27;20455;-82
2023/12/16 10:10:40;;;;;;;8.50;5.57;;;10.20;1.00;;;;;;5192670;27;21051;-81
2023/12/16 10:13:10;;;;;;;13.57;5.77;;;10.20;1.00;;;;;;5191480;27;20506;-82
2023/12/16 10:15:37;;;;;;;9.60;4.73;;;10.20;1.00;;;;;;5192057;27;20454;-81
2023/12/16 10:18:06;;;;;;;7.60;4.40;;;10.20;1.00;;;;;;5191238;27;20458;-82
2023/12/16 10:20:34;;;;;;;8.20;4.90;;;10.20;1.00;;;;;;5182001;27;20455;-81
2023/12/16 10:23:02;;;;;;;11.23;4.47;;;10.00;1.00;;;;;;5195946;27;20425;-81
2023/12/16 10:25:34;;;;;;;7.60;4.77;;;9.90;1.00;;;;;;5175410;27;21402;-81
2023/12/16 10:28:03;;;;;;;9.67;4.80;;;9.90;1.00;;;;;;5170481;27;20439;-81
2023/12/16 10:30:32;;;;;;;14.03;7.60;;;10.10;1.00;;;;;;5188627;27;21136;-80
2023/12/16 10:33:03;;;;;;;10.63;5.60;;;10.40;1.00;;;;;;5194741;27;20442;-82
2023/12/16 10:35:31;;;;;;;12.97;5.30;;;11.10;1.00;;;;;;5175562;27;20995;-80
2023/12/16 10:38:02;;;;;;;9.30;4.70;;;11.30;1.00;;;;;;5174838;27;20457;-80
2023/12/16 10:40:29;;;;;;;14.33;5.00;;;11.50;1.00;;;;;;5191354;27;20862;-81
2023/12/16 10:42:58;;;;;;;11.10;4.97;;;11.90;1.00;;;;;;5194101;27;20434;-81
2023/12/16 10:45:27;;;;;;;7.23;4.10;;;12.30;1.00;;;;;;5191600;27;20458;-81
2023/12/16 10:47:56;;;;;;;9.93;5.20;;;13.00;1.00;;;;;;5189597;27;20462;-81
2023/12/16 10:50:25;;;;;;;13.30;5.33;;;13.50;1.00;;;;;;5192481;27;20501;-80
2023/12/16 10:52:54;;;;;;;14.00;5.37;;;13.40;1.00;;;;;;5194383;27;20439;-81
2023/12/16 10:55:27;;;;;;;7.67;4.50;;;13.40;1.00;;;;;;5199134;27;20443;-80
2023/12/16 10:58:05;;;;;;;9.00;5.20;;;13.40;1.00;;;;;;5193659;27;20509;-80
2023/12/16 11:00:35;;;;;;;6.77;4.70;;;13.60;1.00;;;;;;5191821;27;20829;-81
2023/12/16 11:03:05;;;;;;;12.87;5.07;;;13.20;1.00;;;;;;5192177;27;20521;-81
2023/12/16 11:05:34;;;;;;;11.70;4.70;;;12.90;1.00;;;;;;5192904;27;20913;-81
2023/12/16 11:08:02;;;;;;;8.40;4.10;;;13.10;1.00;;;;;;5194616;27;21003;-81
2023/12/16 11:10:31;;;;;;;8.13;4.20;;;13.90;1.00;;;;;;5192707;27;20459;-83
2023/12/16 11:13:02;;;;;;;9.27;4.10;;;14.60;1.00;;;;;;5195441;27;20448;-81
2023/12/16 11:15:31;;;;;;;20.70;5.80;;;14.70;1.00;;;;;;5175240;27;20428;-80
2023/12/16 11:18:14;;;;;;;9.73;4.67;;;14.70;1.00;;;;;;5192859;27;20486;-80
2023/12/16 11:20:45;;;;;;;11.60;4.40;;;14.60;1.00;;;;;;5193528;27;20471;-82
2023/12/16 11:23:14;;;;;;;10.77;5.00;;;14.10;1.00;;;;;;5197721;27;20440;-81
2023/12/16 11:25:43;;;;;;;8.93;4.73;;;13.80;1.00;;;;;;5193946;27;20522;-81
2023/12/16 11:28:14;;;;;;;9.33;4.20;;;13.70;1.00;;;;;;5193648;27;20614;-81
2023/12/16 11:30:45;;;;;;;10.93;4.47;;;13.20;1.00;;;;;;5198450;27;20478;-82
2023/12/16 11:33:15;;;;;;;8.93;4.07;;;12.80;1.00;;;;;;5199613;27;20445;-81
2023/12/16 11:35:47;;;;;;;14.60;5.00;;;12.50;1.00;;;;;;5195965;27;21293;-81
2023/12/16 11:38:41;;;;;;;8.60;4.03;;;12.30;1.00;;;;;;5191497;27;20567;-80
2023/12/16 11:41:09;;;;;;;11.87;4.33;;;12.00;1.00;;;;;;5195704;27;20468;-80
2023/12/16 11:43:54;;;;;;;10.53;5.17;;;11.90;1.00;;;;;;5198964;27;20478;-80
2023/12/16 11:46:33;;;;;;;11.37;4.90;;;11.70;1.00;;;;;;5193606;27;20538;-79
2023/12/16 11:49:03;;;;;;;6.80;4.40;;;11.60;1.00;;;;;;5196002;27;20537;-80
2023/12/16 11:51:37;;;;;;;12.93;4.80;;;11.50;1.00;;;;;;5194911;27;20495;-80
2023/12/16 11:54:05;;;;;;;8.20;4.03;;;11.70;1.00;;;;;;5178504;27;20453;-80
2023/12/16 11:56:33;;;;;;;8.70;3.77;;;11.80;1.00;;;;;;5192252;27;20937;-80
2023/12/16 11:59:00;;;;;;;7.13;3.97;;;11.90;1.00;;;;;;5197234;27;20477;-80
2023/12/16 12:01:28;;;;;;;9.87;4.83;;;11.90;1.00;;;;;;5192715;27;20481;-80
2023/12/16 12:03:57;;;;;;;8.33;4.37;;;12.10;1.00;;;;;;5194814;27;20940;-79
2023/12/16 12:06:26;;;;;;;14.03;5.27;;;12.20;1.00;;;;;;5193153;27;20460;-80
2023/12/16 12:08:54;;;;;;;15.50;4.90;;;12.50;1.00;;;;;;5193548;27;20474;-80
2023/12/16 12:11:23;;;;;;;12.93;5.57;;;12.60;1.00;;;;;;5193811;27;20898;-79
2023/12/16 12:13:52;;;;;;;12.63;4.90;;;12.60;1.00;;;;;;5194250;27;21202;-79
2023/12/16 12:16:21;;;;;;;7.13;4.27;;;12.40;1.00;;;;;;5192072;27;20443;-79
2023/12/16 12:18:49;;;;;;;10.50;4.87;;;12.20;1.00;;;;;;5192505;27;20464;-80
2023/12/16 12:21:16;;;;;;;10.07;4.40;;;12.00;1.00;;;;;;5198103;27;20516;-80
2023/12/16 12:23:45;;;;;;;9.30;5.47;;;11.80;1.00;;;;;;5180105;27;20479;-79
2023/12/16 12:26:12;;;;;;;9.10;4.37;;;11.70;1.00;;;;;;5173718;27;20478;-79
2023/12/16 12:28:39;;;;;;;10.63;4.90;;;11.40;1.00;;;;;;5190983;27;20451;-79
2023/12/16 12:31:08;;;;;;;11.20;4.23;;;11.20;1.00;;;;;;5194746;27;20459;-79
2023/12/16 12:33:36;;;;;;;7.33;4.97;;;11.20;1.00;;;;;;5194111;27;20927;-79
2023/12/16 12:36:07;;;;;;;7.27;4.70;;;11.10;1.00;;;;;;5195303;27;20450;-78
2023/12/16 12:38:34;;;;;;;8.40;4.37;;;11.00;1.00;;;;;;5195339;27;20461;-80
2023/12/16 12:41:04;;;;;;;9.30;4.53;;;11.00;1.00;;;;;;5193839;27;20478;-79
2023/12/16 12:43:36;;;;;;;9.47;4.13;;;10.90;1.00;;;;;;5192105;27;20534;-81
2023/12/16 12:46:08;;;;;;;16.93;5.67;;;10.90;1.00;;;;;;5193612;27;20454;-80
2023/12/16 12:48:37;;;;;;;7.80;4.17;;;11.00;1.00;;;;;;5193599;27;21125;-81
2023/12/16 12:51:09;;;;;;;15.87;4.97;;;10.90;1.00;;;;;;5196050;27;20503;-79
2023/12/16 12:53:37;;;;;;;15.43;4.50;;;10.80;1.00;;;;;;5192829;27;20447;-81
2023/12/16 12:56:08;;;;;;;13.67;4.97;;;10.70;1.00;;;;;;5195662;27;20478;-80